Time;durP1;ratioP1;P1;durP2;ratioP2;P2;SDS_P1;SDS_P2;PMS_P1;PMS_P2;Temp;Humidity;BMP_temperature;BMP_pressure;BME280_temperature;BME280_humidity;BME280_pressure;Samples;Min_cycle;Max_cycle;Signal;HPM_P1;HPM_P2
2022/07/26 00:01:21;;;;;;;10.47;6.07;;;25.40;84.30;;;;;;5118922;28;20452;-92
2022/07/26 00:03:49;;;;;;;11.23;5.90;;;25.40;84.50;;;;;;5117597;28;20254;-92
2022/07/26 00:06:14;;;;;;;8.03;6.00;;;25.40;84.80;;;;;;5117392;28;20439;-92
2022/07/26 00:08:40;;;;;;;7.13;5.80;;;25.40;85.00;;;;;;5117491;28;20458;-92
2022/07/26 00:11:06;;;;;;;8.47;6.60;;;25.30;85.10;;;;;;5117610;27;20187;-92
2022/07/26 00:13:33;;;;;;;7.50;5.73;;;25.30;85.30;;;;;;5118330;28;20404;-91
2022/07/26 00:15:59;;;;;;;9.60;7.47;;;25.30;85.50;;;;;;5117096;28;20182;-92
2022/07/26 00:18:24;;;;;;;9.43;6.27;;;25.30;85.30;;;;;;5116969;28;20452;-91
2022/07/26 00:20:50;;;;;;;12.83;6.93;;;25.30;85.70;;;;;;5116685;28;20187;-92
2022/07/26 00:23:18;;;;;;;10.53;6.20;;;25.20;85.40;;;;;;5117605;28;20219;-92
2022/07/26 00:25:44;;;;;;;10.87;6.87;;;25.20;85.50;;;;;;5116714;28;20459;-92
2022/07/26 00:28:10;;;;;;;14.73;8.70;;;25.10;86.50;;;;;;5118165;28;20418;-92
2022/07/26 00:30:35;;;;;;;15.57;7.03;;;25.00;85.80;;;;;;5118150;28;20441;-92
2022/07/26 00:33:01;;;;;;;8.13;6.80;;;24.90;85.30;;;;;;5117710;28;20731;-92
2022/07/26 00:35:27;;;;;;;9.00;5.37;;;24.80;85.70;;;;;;5118105;28;20194;-92
2022/07/26 00:37:52;;;;;;;12.03;7.53;;;24.70;86.30;;;;;;5117763;28;20194;-92
2022/07/26 00:40:18;;;;;;;8.83;7.23;;;24.70;86.50;;;;;;5118165;28;20194;-93
2022/07/26 00:42:44;;;;;;;11.70;7.40;;;24.60;84.70;;;;;;5117189;28;20578;-93
2022/07/26 00:45:12;;;;;;;7.67;5.80;;;24.50;83.30;;;;;;5117100;28;20225;-92
2022/07/26 00:47:38;;;;;;;12.63;6.60;;;24.50;84.20;;;;;;5122118;28;20190;-92
2022/07/26 00:50:06;;;;;;;11.20;7.20;;;24.40;83.60;;;;;;5130860;27;20502;-92
2022/07/26 00:52:32;;;;;;;8.53;6.43;;;24.40;84.20;;;;;;5128309;28;21011;-92
2022/07/26 00:54:58;;;;;;;8.10;6.43;;;24.40;85.40;;;;;;5123810;28;20514;-92
2022/07/26 00:57:24;;;;;;;10.37;6.23;;;24.40;85.60;;;;;;5118734;28;20481;-92
2022/07/26 00:59:50;;;;;;;8.37;5.73;;;24.40;85.30;;;;;;5116000;28;20268;-92
2022/07/26 01:02:16;;;;;;;7.53;6.13;;;24.40;84.80;;;;;;5115755;28;20704;-92
2022/07/26 01:04:43;;;;;;;6.20;5.60;;;24.40;85.10;;;;;;5115659;28;20482;-91
2022/07/26 01:07:10;;;;;;;6.73;5.50;;;24.50;85.60;;;;;;5117566;28;20479;-92
2022/07/26 01:09:39;;;;;;;8.70;6.07;;;24.50;85.70;;;;;;5114956;28;20539;-93
2022/07/26 01:12:05;;;;;;;7.20;6.37;;;24.60;86.00;;;;;;5115692;28;20464;-92
2022/07/26 01:14:31;;;;;;;8.03;5.77;;;24.60;85.90;;;;;;5116725;28;20414;-93
2022/07/26 01:16:56;;;;;;;7.70;6.00;;;24.60;86.00;;;;;;5115469;28;20213;-92
2022/07/26 01:19:22;;;;;;;14.53;6.97;;;24.60;85.70;;;;;;5116534;28;20179;-93
2022/07/26 01:21:50;;;;;;;8.97;6.17;;;24.60;85.30;;;;;;5115585;28;20285;-92
2022/07/26 01:24:16;;;;;;;14.07;6.83;;;24.60;85.30;;;;;;5115070;28;20211;-92
2022/07/26 01:26:43;;;;;;;7.10;6.23;;;24.50;85.40;;;;;;5115662;28;20423;-92
2022/07/26 01:29:09;;;;;;;9.13;6.20;;;24.50;85.50;;;;;;5116880;28;20418;-91
2022/07/26 01:31:35;;;;;;;11.27;6.97;;;24.50;85.40;;;;;;5115816;28;20445;-92
2022/07/26 01:34:01;;;;;;;7.57;5.70;;;24.50;85.30;;;;;;5116407;27;20402;-92
2022/07/26 01:36:26;;;;;;;8.00;6.80;;;24.50;86.00;;;;;;5115268;28;20468;-92
2022/07/26 01:38:52;;;;;;;7.80;6.30;;;24.40;87.10;;;;;;5116382;28;20175;-91
2022/07/26 01:41:18;;;;;;;8.20;5.73;;;24.40;86.20;;;;;;5115821;28;20209;-92
2022/07/26 01:43:43;;;;;;;10.20;6.50;;;24.40;86.30;;;;;;5115508;28;20293;-91
2022/07/26 01:46:09;;;;;;;7.53;5.73;;;24.40;86.60;;;;;;5115177;28;20207;-92
2022/07/26 01:48:35;;;;;;;11.90;7.17;;;24.40;86.90;;;;;;5115300;28;20174;-93
2022/07/26 01:51:01;;;;;;;7.50;5.60;;;24.30;87.00;;;;;;5116626;28;20419;-92
2022/07/26 01:53:27;;;;;;;7.73;6.20;;;24.30;87.10;;;;;;5115309;28;20185;-92
2022/07/26 01:55:53;;;;;;;14.90;8.20;;;24.30;88.00;;;;;;5116060;28;20186;-92
2022/07/26 01:58:19;;;;;;;10.33;6.77;;;24.30;87.20;;;;;;5115119;28;20205;-92
2022/07/26 02:00:44;;;;;;;18.37;6.40;;;24.20;87.40;;;;;;5115084;28;20470;-92
2022/07/26 02:03:10;;;;;;;10.40;6.50;;;24.20;87.70;;;;;;5115841;28;20199;-92
2022/07/26 02:05:36;;;;;;;9.40;6.30;;;24.20;88.00;;;;;;5115653;28;20257;-92
2022/07/26 02:08:02;;;;;;;13.90;7.90;;;24.10;88.00;;;;;;5115838;28;20465;-91
2022/07/26 02:11:10;;;;;;;9.73;7.10;;;24.10;88.00;;;;;;5115215;28;20664;-92
2022/07/26 02:13:17;;;;;;;15.10;6.50;;;24.10;88.00;;;;;;5115471;28;20436;-92
2022/07/26 02:15:43;;;;;;;8.57;6.63;;;24.00;87.80;;;;;;5117223;28;20427;-92
2022/07/26 02:18:08;;;;;;;13.00;6.10;;;24.00;87.80;;;;;;5117293;28;20424;-91
2022/07/26 02:20:34;;;;;;;11.10;7.00;;;24.00;87.90;;;;;;5116918;28;20521;-92
2022/07/26 02:23:00;;;;;;;9.40;6.30;;;24.00;88.10;;;;;;5114616;28;20193;-92
2022/07/26 02:25:27;;;;;;;16.23;6.63;;;23.90;88.10;;;;;;5117634;28;20228;-91
2022/07/26 02:27:52;;;;;;;8.00;6.40;;;23.90;88.30;;;;;;5115603;28;20463;-92
2022/07/26 02:30:18;;;;;;;11.00;6.27;;;23.90;88.50;;;;;;5123365;28;20924;-92
2022/07/26 02:32:44;;;;;;;8.57;7.00;;;23.80;88.70;;;;;;5116828;28;20200;-91
2022/07/26 02:35:10;;;;;;;17.07;7.47;;;23.80;89.00;;;;;;5115518;28;20175;-89
2022/07/26 02:37:36;;;;;;;9.83;7.17;;;23.70;89.20;;;;;;5114367;28;20193;-92
2022/07/26 02:40:03;;;;;;;13.00;7.20;;;23.70;89.50;;;;;;5114329;28;20580;-92
2022/07/26 02:42:29;;;;;;;11.20;6.67;;;23.70;89.50;;;;;;5115266;28;20478;-92
2022/07/26 02:44:54;;;;;;;11.10;6.60;;;23.70;89.70;;;;;;5114707;28;20471;-92
2022/07/26 02:47:20;;;;;;;11.23;8.07;;;23.60;89.60;;;;;;5114145;28;20189;-92
2022/07/26 02:49:45;;;;;;;10.93;8.03;;;23.60;89.60;;;;;;5114650;28;20192;-92
2022/07/26 02:52:11;;;;;;;13.37;6.63;;;23.60;90.00;;;;;;5114434;28;20250;-92
2022/07/26 02:54:37;;;;;;;12.53;8.30;;;23.60;90.00;;;;;;5115583;28;20213;-92
2022/07/26 02:57:03;;;;;;;14.10;6.90;;;23.60;90.20;;;;;;5115751;28;20593;-92
2022/07/26 02:59:29;;;;;;;8.80;6.90;;;23.60;90.10;;;;;;5114944;28;20408;-92
2022/07/26 03:01:54;;;;;;;10.10;7.17;;;23.60;90.00;;;;;;5113860;28;20965;-92
2022/07/26 03:04:20;;;;;;;8.83;6.53;;;23.60;89.80;;;;;;5115222;28;20459;-92
2022/07/26 03:06:46;;;;;;;10.53;7.87;;;23.60;89.50;;;;;;5113889;28;20203;-92
2022/07/26 03:09:12;;;;;;;9.13;7.03;;;23.60;89.20;;;;;;5114555;28;20232;-92
2022/07/26 03:11:37;;;;;;;13.00;7.43;;;23.60;88.80;;;;;;5113952;28;20212;-92
2022/07/26 03:14:03;;;;;;;7.80;6.27;;;23.60;88.70;;;;;;5113883;28;20613;-91
2022/07/26 03:16:44;;;;;;;8.63;6.57;;;23.60;88.60;;;;;;5092039;28;20232;-92
2022/07/26 03:19:10;;;;;;;8.30;6.10;;;23.60;88.60;;;;;;5114949;28;20400;-92
2022/07/26 03:21:35;;;;;;;9.43;6.20;;;23.60;88.50;;;;;;5114739;28;20204;-91
2022/07/26 03:24:01;;;;;;;16.50;6.70;;;23.60;88.60;;;;;;5113643;28;20220;-92
2022/07/26 03:26:28;;;;;;;10.20;6.60;;;23.60;88.60;;;;;;5113898;28;20192;-92
2022/07/26 03:28:54;;;;;;;9.50;7.07;;;23.60;88.70;;;;;;5113765;28;20241;-91
2022/07/26 03:31:22;;;;;;;9.63;6.50;;;23.60;88.80;;;;;;5114855;28;20447;-92
2022/07/26 03:33:47;;;;;;;8.47;6.30;;;23.70;89.00;;;;;;5116980;28;20421;-91
2022/07/26 03:36:13;;;;;;;17.10;7.50;;;23.60;89.00;;;;;;5119278;28;20807;-92
2022/07/26 03:38:39;;;;;;;11.33;7.33;;;23.60;89.10;;;;;;5117652;28;20660;-92
2022/07/26 03:41:05;;;;;;;8.17;6.30;;;23.60;90.00;;;;;;5119183;28;20188;-92
2022/07/26 03:43:30;;;;;;;9.27;6.60;;;23.60;89.40;;;;;;5118104;28;20181;-91
2022/07/26 03:45:56;;;;;;;7.23;6.40;;;23.60;89.50;;;;;;5117514;28;20523;-92
2022/07/26 03:48:22;;;;;;;9.03;6.40;;;23.60;89.70;;;;;;5117603;27;20541;-91
2022/07/26 03:50:48;;;;;;;9.00;5.63;;;23.60;89.80;;;;;;5118920;28;20310;-92
2022/07/26 03:53:14;;;;;;;16.07;7.20;;;23.60;90.00;;;;;;5118375;28;20192;-92
2022/07/26 03:58:23;;;;;;;16.30;8.60;;;23.60;90.20;;;;;;5119299;28;20171;-92
2022/07/26 04:00:49;;;;;;;14.40;7.00;;;23.60;90.30;;;;;;5117893;28;20421;-93
2022/07/26 04:03:15;;;;;;;12.43;7.80;;;23.60;90.30;;;;;;5117935;28;20207;-92
2022/07/26 04:05:40;;;;;;;11.63;6.90;;;23.60;90.10;;;;;;5117298;28;20240;-91
2022/07/26 04:08:06;;;;;;;10.90;6.57;;;23.60;90.10;;;;;;5117277;28;20228;-93
2022/07/26 04:10:32;;;;;;;13.43;6.80;;;23.60;90.00;;;;;;5117394;28;20637;-92
2022/07/26 04:12:57;;;;;;;8.17;6.30;;;23.60;90.10;;;;;;5118027;28;20203;-91
2022/07/26 04:15:23;;;;;;;9.83;6.20;;;23.70;90.10;;;;;;5119161;28;20173;-92
2022/07/26 04:17:49;;;;;;;17.60;8.30;;;23.70;90.00;;;;;;5118023;28;20226;-91
2022/07/26 04:20:15;;;;;;;17.30;7.70;;;23.70;90.00;;;;;;5118149;28;20651;-90
2022/07/26 04:22:41;;;;;;;11.10;6.27;;;23.70;90.10;;;;;;5119747;28;20200;-92
2022/07/26 04:25:08;;;;;;;94.23;50.67;;;23.80;90.30;;;;;;5117309;28;20526;-92
2022/07/26 04:27:34;;;;;;;147.73;77.43;;;23.90;90.50;;;;;;5120552;28;20197;-92
2022/07/26 04:30:00;;;;;;;24.00;13.80;;;23.90;90.50;;;;;;5118752;28;20519;-91
2022/07/26 04:32:26;;;;;;;14.73;10.20;;;23.90;90.50;;;;;;5099221;28;20466;-92
2022/07/26 04:34:52;;;;;;;13.10;8.27;;;24.00;90.50;;;;;;5099190;28;20472;-92
2022/07/26 04:37:18;;;;;;;19.20;8.00;;;24.00;90.40;;;;;;5097671;28;20204;-92
2022/07/26 04:39:43;;;;;;;15.40;8.43;;;24.00;90.40;;;;;;5096988;28;20182;-92
2022/07/26 04:42:10;;;;;;;8.53;6.53;;;24.10;90.30;;;;;;5100623;28;20295;-92
2022/07/26 04:44:36;;;;;;;10.47;7.50;;;24.10;90.40;;;;;;5098195;28;20716;-92
2022/07/26 04:47:02;;;;;;;15.23;6.70;;;24.20;90.40;;;;;;5103076;28;20446;-92
2022/07/26 04:49:27;;;;;;;10.00;8.10;;;24.20;90.40;;;;;;5108407;28;20406;-92
2022/07/26 04:51:53;;;;;;;9.23;7.30;;;24.20;90.30;;;;;;5107403;28;20206;-92
2022/07/26 04:54:21;;;;;;;11.33;7.07;;;24.30;90.30;;;;;;5095887;28;20202;-93
2022/07/26 04:56:47;;;;;;;13.80;7.97;;;24.30;89.80;;;;;;5104129;28;20187;-92
2022/07/26 04:59:14;;;;;;;15.03;7.60;;;24.40;90.00;;;;;;5107205;28;20432;-92
2022/07/26 05:01:39;;;;;;;12.40;8.73;;;24.40;89.40;;;;;;5108020;28;20418;-92
2022/07/26 05:04:05;;;;;;;191.23;106.57;;;24.50;88.50;;;;;;5107843;28;20481;-91
2022/07/26 05:06:31;;;;;;;18.70;12.87;;;24.50;88.20;;;;;;5104648;28;20210;-92
2022/07/26 05:08:57;;;;;;;11.90;8.10;;;24.60;87.20;;;;;;5102431;28;20568;-93
2022/07/26 05:11:24;;;;;;;13.33;7.83;;;24.60;86.20;;;;;;5106710;28;20202;-92
2022/07/26 05:13:49;;;;;;;12.03;7.13;;;24.70;85.60;;;;;;5102562;28;20454;-93
2022/07/26 05:16:15;;;;;;;12.10;7.43;;;24.70;84.90;;;;;;5113231;28;20447;-93
2022/07/26 05:18:41;;;;;;;9.40;7.17;;;24.70;83.80;;;;;;5106910;28;20194;-91
2022/07/26 05:21:07;;;;;;;7.57;6.70;;;24.70;84.00;;;;;;5121372;28;20434;-92
2022/07/26 05:23:33;;;;;;;14.60;7.05;;;24.70;84.20;;;;;;5122519;28;20666;-91
2022/07/26 05:25:58;;;;;;;8.43;7.00;;;24.80;84.50;;;;;;5114526;28;20206;-92
2022/07/26 05:28:24;;;;;;;11.03;6.90;;;24.80;84.60;;;;;;5114911;28;20271;-90
2022/07/26 05:30:50;;;;;;;11.70;6.60;;;24.80;84.70;;;;;;5107085;28;20186;-92
2022/07/26 05:33:15;;;;;;;7.43;6.60;;;24.90;85.00;;;;;;5101542;28;20854;-92
2022/07/26 05:35:41;;;;;;;9.17;7.07;;;24.90;85.00;;;;;;5104644;28;20431;-94
2022/07/26 05:38:07;;;;;;;8.40;6.87;;;25.00;85.10;;;;;;5104337;28;20208;-92
2022/07/26 05:40:33;;;;;;;9.37;6.60;;;25.00;85.30;;;;;;5112090;28;20204;-91
2022/07/26 05:42:58;;;;;;;11.93;6.80;;;25.20;85.50;;;;;;5128529;27;20222;-92
2022/07/26 05:45:24;;;;;;;9.53;6.17;;;25.20;85.30;;;;;;5093951;28;20474;-93
2022/07/26 05:47:51;;;;;;;8.60;6.03;;;25.30;85.40;;;;;;5100185;28;20264;-92
2022/07/26 05:50:18;;;;;;;7.50;6.50;;;25.40;85.10;;;;;;5103758;28;20183;-91
2022/07/26 05:52:44;;;;;;;7.10;6.40;;;25.50;84.80;;;;;;5110110;28;20471;-92
2022/07/26 05:55:10;;;;;;;10.13;6.57;;;25.60;83.60;;;;;;5096836;28;20807;-91
2022/07/26 05:57:40;;;;;;;8.80;6.87;;;25.80;83.70;;;;;;5108823;28;20453;-92
2022/07/26 06:00:07;;;;;;;7.40;6.33;;;25.90;83.10;;;;;;5106556;28;20442;-92
2022/07/26 06:02:32;;;;;;;13.10;7.63;;;26.00;83.30;;;;;;5108031;28;20480;-92
2022/07/26 06:04:58;;;;;;;9.50;6.70;;;26.20;83.10;;;;;;5110559;28;20475;-93
2022/07/26 06:07:24;;;;;;;9.30;6.17;;;26.30;83.20;;;;;;5107806;28;20199;-91
2022/07/26 06:09:49;;;;;;;9.37;7.57;;;26.40;82.90;;;;;;5103588;28;20227;-92
2022/07/26 06:12:15;;;;;;;9.17;6.63;;;26.60;82.80;;;;;;5107975;28;20259;-92
2022/07/26 06:14:41;;;;;;;8.23;6.20;;;26.70;82.50;;;;;;5102077;28;20204;-92
2022/07/26 06:17:07;;;;;;;7.40;6.60;;;26.80;81.50;;;;;;5104303;28;20669;-91
2022/07/26 06:19:32;;;;;;;8.67;7.47;;;27.00;81.00;;;;;;5101593;28;20180;-92
2022/07/26 06:21:58;;;;;;;9.47;7.67;;;27.10;79.60;;;;;;5102079;28;20200;-93
2022/07/26 06:24:24;;;;;;;8.30;7.50;;;27.20;79.30;;;;;;5099931;28;20207;-92
2022/07/26 06:26:52;;;;;;;8.10;7.20;;;27.30;79.90;;;;;;5104783;28;20564;-93
2022/07/26 06:29:17;;;;;;;12.00;6.93;;;27.40;79.70;;;;;;5094075;28;20176;-92
2022/07/26 06:31:43;;;;;;;9.80;7.37;;;27.50;80.00;;;;;;5096710;28;20421;-93
2022/07/26 06:34:09;;;;;;;7.97;6.80;;;27.70;81.00;;;;;;5122790;27;20180;-91
2022/07/26 06:36:35;;;;;;;6.63;5.77;;;27.80;80.20;;;;;;5094525;28;20438;-92
2022/07/26 06:39:00;;;;;;;7.53;6.83;;;27.90;79.00;;;;;;5093272;28;20173;-91
2022/07/26 06:41:26;;;;;;;10.07;5.80;;;28.00;78.40;;;;;;5104743;28;20200;-92
2022/07/26 06:44:12;;;;;;;7.47;6.57;;;28.10;78.10;;;;;;5110429;28;20216;-90
2022/07/26 06:46:38;;;;;;;6.83;5.67;;;28.20;77.90;;;;;;5107442;28;20216;-93
2022/07/26 06:49:04;;;;;;;44.50;30.93;;;28.30;77.00;;;;;;5116363;28;20479;-92
2022/07/26 06:51:30;;;;;;;9.33;6.20;;;28.50;77.20;;;;;;5110707;28;20208;-92
2022/07/26 06:53:55;;;;;;;23.00;12.27;;;28.50;77.70;;;;;;5100273;28;20413;-91
2022/07/26 06:56:21;;;;;;;8.70;7.20;;;28.60;77.80;;;;;;5089760;28;20707;-93
2022/07/26 06:58:47;;;;;;;6.10;5.47;;;28.80;78.00;;;;;;5102515;28;20193;-93
2022/07/26 07:01:12;;;;;;;8.30;6.20;;;28.90;78.00;;;;;;5111316;28;20247;-93
2022/07/26 07:03:38;;;;;;;6.50;5.70;;;29.00;77.60;;;;;;5107980;28;20190;-92
2022/07/26 07:06:04;;;;;;;6.90;6.20;;;29.20;77.30;;;;;;5131893;28;20186;-93
2022/07/26 07:08:29;;;;;;;9.73;5.67;;;29.40;76.70;;;;;;5111106;28;20234;-94
2022/07/26 07:10:55;;;;;;;24.93;8.20;;;29.50;75.80;;;;;;5100749;28;20184;-94
2022/07/26 07:13:21;;;;;;;17.70;7.70;;;29.60;76.30;;;;;;5116059;28;20564;-93
2022/07/26 07:15:47;;;;;;;12.70;7.23;;;29.80;76.30;;;;;;5115390;28;20187;-93
2022/07/26 07:18:13;;;;;;;71.70;47.53;;;29.90;75.90;;;;;;5111344;28;20446;-93
2022/07/26 07:20:40;;;;;;;7.70;6.30;;;30.00;75.30;;;;;;5109145;28;20444;-91
2022/07/26 07:23:08;;;;;;;15.73;7.03;;;30.20;75.90;;;;;;5112960;28;20185;-91
2022/07/26 07:25:34;;;;;;;15.70;6.77;;;30.40;75.40;;;;;;5111882;28;20481;-90
2022/07/26 07:28:00;;;;;;;17.10;8.00;;;30.50;74.60;;;;;;5109427;28;20466;-93
2022/07/26 07:30:26;;;;;;;9.50;6.50;;;30.70;74.00;;;;;;5094926;28;20216;-90
2022/07/26 07:32:52;;;;;;;8.37;5.90;;;30.80;74.50;;;;;;5096299;28;20759;-93
2022/07/26 07:35:18;;;;;;;12.33;6.13;;;31.00;73.70;;;;;;5110213;28;20426;-92
2022/07/26 07:37:44;;;;;;;6.33;5.73;;;31.10;73.50;;;;;;5112469;28;20210;-90
2022/07/26 07:40:10;;;;;;;8.73;5.90;;;31.30;73.30;;;;;;5102678;28;20547;-91
2022/07/26 07:42:36;;;;;;;15.33;13.73;;;31.50;73.30;;;;;;5104112;28;20435;-90
2022/07/26 07:45:02;;;;;;;15.33;9.63;;;31.60;73.50;;;;;;5113475;28;20475;-90
2022/07/26 07:47:28;;;;;;;52.57;26.10;;;31.70;72.00;;;;;;5116050;28;20612;-91
2022/07/26 07:49:54;;;;;;;14.20;7.40;;;31.90;71.60;;;;;;5107924;28;20526;-91
2022/07/26 07:52:19;;;;;;;5.63;5.13;;;32.00;71.40;;;;;;5116666;28;20204;-91
2022/07/26 07:54:45;;;;;;;6.10;5.60;;;32.10;71.50;;;;;;5108675;28;20183;-92
2022/07/26 07:57:11;;;;;;;7.37;5.90;;;32.10;72.00;;;;;;5120601;28;20199;-92
2022/07/26 07:59:37;;;;;;;8.80;5.10;;;32.30;71.50;;;;;;5104157;28;20200;-92
2022/07/26 08:02:02;;;;;;;44.07;6.63;;;32.30;70.90;;;;;;5097682;28;20225;-92
2022/07/26 08:04:28;;;;;;;6.97;5.60;;;32.40;70.20;;;;;;5101838;28;20211;-92
2022/07/26 08:06:54;;;;;;;6.03;5.43;;;32.40;70.20;;;;;;5102251;28;20283;-93
2022/07/26 08:09:22;;;;;;;6.23;5.63;;;32.50;70.60;;;;;;5111070;28;20216;-92
2022/07/26 08:11:47;;;;;;;7.20;5.20;;;32.50;70.60;;;;;;5104047;28;20224;-94
2022/07/26 08:14:13;;;;;;;6.90;6.17;;;32.60;70.90;;;;;;5102674;28;20448;-91
2022/07/26 08:16:39;;;;;;;9.20;5.63;;;32.70;70.70;;;;;;5101432;28;20216;-91
2022/07/26 08:19:05;;;;;;;6.47;5.87;;;32.70;70.80;;;;;;5097963;28;20171;-90
2022/07/26 08:21:30;;;;;;;7.57;6.33;;;32.90;70.10;;;;;;5099293;28;20287;-91
2022/07/26 08:23:57;;;;;;;7.07;6.37;;;32.90;70.30;;;;;;5104043;28;20217;-90
2022/07/26 08:26:23;;;;;;;6.70;6.00;;;32.90;70.60;;;;;;5106866;28;20233;-91
2022/07/26 08:28:48;;;;;;;7.47;6.70;;;33.00;70.00;;;;;;5108625;28;20424;-93
2022/07/26 08:31:15;;;;;;;7.27;6.43;;;33.00;70.20;;;;;;5106077;28;20855;-92
2022/07/26 08:33:41;;;;;;;7.67;6.97;;;33.10;70.40;;;;;;5100750;28;20202;-92
2022/07/26 08:36:07;;;;;;;6.37;5.83;;;33.20;69.80;;;;;;5108247;28;20452;-92
2022/07/26 08:38:32;;;;;;;8.07;6.60;;;33.20;69.60;;;;;;5115488;28;20228;-91
2022/07/26 08:40:58;;;;;;;7.20;6.50;;;33.30;70.10;;;;;;5107626;28;20210;-92
2022/07/26 08:43:24;;;;;;;7.63;6.20;;;33.40;70.40;;;;;;5109411;28;20275;-91
2022/07/26 08:45:50;;;;;;;7.50;6.60;;;33.50;69.50;;;;;;5105269;28;20303;-90
2022/07/26 08:48:16;;;;;;;6.53;5.93;;;33.60;69.60;;;;;;5108619;28;20992;-92
2022/07/26 08:50:42;;;;;;;7.50;6.80;;;33.70;69.70;;;;;;5098818;28;20188;-91
2022/07/26 08:53:10;;;;;;;7.40;6.23;;;33.70;68.10;;;;;;5110152;28;20202;-91
2022/07/26 08:55:37;;;;;;;9.80;5.90;;;33.80;67.90;;;;;;5129614;28;20478;-90
2022/07/26 08:58:03;;;;;;;6.40;5.80;;;33.80;68.10;;;;;;5102618;28;20490;-92
2022/07/26 09:00:30;;;;;;;6.63;5.93;;;33.90;68.20;;;;;;5113591;27;20435;-92
2022/07/26 09:02:58;;;;;;;6.27;5.70;;;34.00;67.80;;;;;;5096792;28;21468;-93
2022/07/26 09:05:42;;;;;;;7.23;6.53;;;34.00;68.50;;;;;;5101197;28;21773;-92
2022/07/26 09:08:28;;;;;;;6.77;5.87;;;34.10;68.60;;;;;;5106531;28;20518;-94
2022/07/26 09:10:54;;;;;;;9.53;6.10;;;34.20;67.00;;;;;;5111260;28;20448;-92
2022/07/26 09:13:22;;;;;;;6.60;6.00;;;34.30;67.50;;;;;;5112162;28;20452;-94
2022/07/26 09:15:48;;;;;;;5.63;5.17;;;34.40;67.80;;;;;;5117347;28;20443;-92
2022/07/26 09:18:27;;;;;;;6.53;5.93;;;34.40;67.70;;;;;;5103900;28;20455;-93
2022/07/26 09:20:53;;;;;;;8.60;5.70;;;34.50;66.40;;;;;;5108173;28;20471;-92
2022/07/26 09:23:19;;;;;;;5.53;5.03;;;34.50;66.10;;;;;;5102288;28;20445;-91
2022/07/26 09:25:45;;;;;;;6.07;5.47;;;34.50;66.20;;;;;;5104354;28;20529;-91
2022/07/26 09:28:30;;;;;;;7.40;6.70;;;34.60;65.80;;;;;;5104376;28;20192;-92
2022/07/26 09:30:59;;;;;;;5.90;4.93;;;34.70;65.70;;;;;;5100806;28;20441;-94
2022/07/26 09:33:25;;;;;;;5.67;5.17;;;34.70;66.80;;;;;;5103513;28;20433;-94
2022/07/26 09:36:03;;;;;;;6.88;6.18;;;34.70;66.10;;;;;;5101590;28;20418;-91
2022/07/26 09:38:43;;;;;;;10.60;6.60;;;34.60;67.00;;;;;;5097353;28;20421;-93
2022/07/26 09:41:28;;;;;;;7.00;6.30;;;34.70;67.00;;;;;;5101360;28;20184;-92
2022/07/26 09:44:21;;;;;;;6.77;6.17;;;34.80;67.20;;;;;;5115791;28;20435;-94
2022/07/26 09:46:55;;;;;;;6.63;6.03;;;34.80;66.20;;;;;;5109271;28;20535;-91
2022/07/26 09:49:23;;;;;;;6.70;6.03;;;34.80;66.30;;;;;;5121532;27;20428;-92
2022/07/26 09:51:51;;;;;;;6.90;6.20;;;34.80;65.90;;;;;;5112970;28;20450;-90
2022/07/26 09:54:27;;;;;;;7.00;6.40;;;34.90;66.20;;;;;;5113528;28;20427;-94
2022/07/26 09:56:53;;;;;;;5.90;5.40;;;34.90;65.70;;;;;;5098983;28;20535;-94
2022/07/26 09:59:24;;;;;;;7.20;6.50;;;35.00;66.40;;;;;;5098106;28;20524;-91
2022/07/26 10:01:51;;;;;;;6.90;6.20;;;35.10;66.80;;;;;;5114257;27;20219;-91
2022/07/26 10:04:18;;;;;;;8.37;5.17;;;35.10;66.30;;;;;;5109432;28;20515;-93
2022/07/26 10:06:44;;;;;;;6.40;5.80;;;35.20;66.60;;;;;;5093067;28;20845;-94
2022/07/26 10:09:11;;;;;;;7.27;6.57;;;35.20;65.50;;;;;;5111718;28;20507;-91
2022/07/26 10:11:49;;;;;;;7.50;6.80;;;35.10;65.20;;;;;;5103437;28;20492;-92
2022/07/26 10:14:36;;;;;;;6.67;6.00;;;35.20;65.30;;;;;;5097913;28;20424;-92
2022/07/26 10:17:27;;;;;;;7.90;6.27;;;35.20;65.40;;;;;;5106723;28;20516;-92
2022/07/26 10:19:56;;;;;;;6.57;5.93;;;35.30;65.80;;;;;;5103663;28;20452;-92
2022/07/26 10:22:23;;;;;;;6.40;5.77;;;35.30;66.00;;;;;;5102881;28;20471;-92
2022/07/26 10:24:49;;;;;;;8.27;6.40;;;35.30;65.90;;;;;;5103696;28;20486;-92
2022/07/26 10:27:37;;;;;;;8.13;6.07;;;35.40;65.50;;;;;;5126675;27;20507;-94
2022/07/26 10:30:18;;;;;;;7.10;6.27;;;35.40;65.10;;;;;;5101754;28;20439;-94
2022/07/26 10:32:52;;;;;;;5.93;5.43;;;35.40;65.70;;;;;;5108905;28;20452;-93
2022/07/26 10:35:31;;;;;;;6.13;5.57;;;35.40;65.40;;;;;;5103217;28;20817;-93
2022/07/26 10:38:08;;;;;;;6.70;6.00;;;35.40;65.70;;;;;;5096533;28;20476;-92
2022/07/26 10:40:36;;;;;;;6.60;5.93;;;35.40;65.80;;;;;;5097748;28;20840;-92
2022/07/26 10:43:17;;;;;;;6.90;6.20;;;35.40;65.90;;;;;;5093324;28;20448;-94
2022/07/26 10:45:43;;;;;;;6.30;5.77;;;35.40;65.70;;;;;;5103338;28;20476;-93
2022/07/26 10:48:15;;;;;;;6.30;5.60;;;35.30;65.80;;;;;;5104380;28;20528;-92
2022/07/26 10:50:44;;;;;;;7.23;6.53;;;35.30;65.80;;;;;;5100993;28;20437;-93
2022/07/26 10:53:26;;;;;;;5.50;5.00;;;35.20;65.70;;;;;;5105180;28;20564;-93
2022/07/26 10:55:53;;;;;;;6.40;5.80;;;35.20;66.00;;;;;;5097883;28;20443;-92
2022/07/26 10:58:22;;;;;;;7.27;6.27;;;35.20;66.10;;;;;;5096797;28;20514;-92
2022/07/26 11:01:02;;;;;;;6.77;6.17;;;35.10;66.10;;;;;;5104444;28;20428;-93
2022/07/26 11:03:55;;;;;;;6.63;6.00;;;35.00;66.10;;;;;;5107216;28;20956;-93
2022/07/26 11:06:20;;;;;;;6.60;6.00;;;34.90;66.20;;;;;;5095646;28;20468;-93
2022/07/26 11:08:47;;;;;;;7.10;6.40;;;34.90;66.30;;;;;;5101527;28;20470;-94
2022/07/26 11:11:13;;;;;;;7.10;6.10;;;34.80;66.10;;;;;;5102564;28;20229;-93
2022/07/26 11:13:42;;;;;;;7.10;6.23;;;34.80;66.00;;;;;;5102521;28;20429;-92
2022/07/26 11:16:08;;;;;;;6.60;5.90;;;34.80;65.60;;;;;;5108922;28;20549;-92
2022/07/26 11:18:36;;;;;;;7.53;6.30;;;34.80;65.70;;;;;;5103005;28;20540;-92
2022/07/26 11:21:14;;;;;;;6.47;5.87;;;34.70;65.40;;;;;;5098496;28;20510;-93
2022/07/26 11:23:46;;;;;;;8.23;6.57;;;34.70;65.10;;;;;;5106297;28;20432;-93
2022/07/26 11:26:16;;;;;;;5.93;5.40;;;34.70;65.30;;;;;;5114454;28;20469;-92
2022/07/26 11:28:46;;;;;;;7.83;5.93;;;34.70;65.80;;;;;;5113768;28;20431;-91
2022/07/26 11:31:12;;;;;;;7.53;6.40;;;34.70;66.00;;;;;;5106146;28;20433;-93
2022/07/26 11:33:41;;;;;;;6.73;6.10;;;34.60;65.90;;;;;;5104017;28;20431;-92
2022/07/26 11:36:08;;;;;;;6.40;5.80;;;34.60;65.40;;;;;;5108955;22;20440;-79
2022/07/26 11:38:52;;;;;;;6.70;6.03;;;34.60;65.80;;;;;;5067393;28;20481;-78
2022/07/26 11:41:24;;;;;;;7.10;5.83;;;34.60;65.60;;;;;;5044564;28;21065;-78
2022/07/26 11:43:52;;;;;;;6.40;5.87;;;34.50;65.40;;;;;;5044940;28;20478;-80
2022/07/26 11:46:19;;;;;;;5.87;5.37;;;34.60;65.50;;;;;;5073796;28;20483;-78
2022/07/26 11:48:54;;;;;;;5.90;5.30;;;34.50;65.60;;;;;;5046148;28;20429;-82
2022/07/26 11:51:27;;;;;;;6.13;5.53;;;34.60;65.80;;;;;;5050382;28;20469;-79
2022/07/26 11:54:08;;;;;;;7.77;5.60;;;34.50;65.20;;;;;;5046892;28;20445;-79
2022/07/26 11:56:48;;;;;;;7.50;5.47;;;34.50;65.40;;;;;;5063776;28;20453;-79
2022/07/26 11:59:13;;;;;;;7.87;6.20;;;34.50;65.40;;;;;;5065640;28;20906;-84
2022/07/26 12:01:46;;;;;;;6.63;6.03;;;34.50;65.50;;;;;;5051792;28;20454;-79
2022/07/26 12:04:22;;;;;;;6.53;5.60;;;34.50;65.90;;;;;;5049415;28;20498;-82
2022/07/26 12:06:51;;;;;;;9.80;6.20;;;34.50;65.90;;;;;;5049763;28;20467;-78
2022/07/26 12:09:34;;;;;;;6.40;5.80;;;34.50;65.60;;;;;;5050917;28;20466;-81
2022/07/26 12:12:09;;;;;;;6.93;6.00;;;34.50;65.60;;;;;;5043965;28;20481;-83
2022/07/26 12:14:37;;;;;;;7.60;6.40;;;34.50;65.60;;;;;;5052116;28;20448;-77
2022/07/26 12:17:16;;;;;;;6.87;6.17;;;34.50;65.50;;;;;;5063837;28;20511;-77
2022/07/26 12:19:46;;;;;;;6.33;5.70;;;34.50;65.70;;;;;;5067035;28;20450;-85
2022/07/26 12:22:18;;;;;;;9.20;5.73;;;34.50;65.30;;;;;;5066627;28;20446;-78
2022/07/26 12:24:57;;;;;;;8.40;5.70;;;34.50;65.20;;;;;;5053185;28;20477;-79
2022/07/26 12:27:25;;;;;;;6.70;5.97;;;34.50;65.60;;;;;;5051445;28;20446;-83
2022/07/26 12:30:13;;;;;;;6.80;6.20;;;34.50;65.30;;;;;;5046466;28;20458;-81
2022/07/26 12:32:42;;;;;;;8.10;5.90;;;34.50;65.50;;;;;;5053253;28;20979;-81
2022/07/26 12:35:24;;;;;;;6.77;5.87;;;34.60;66.60;;;;;;5071472;28;20457;-77
2022/07/26 12:37:52;;;;;;;6.30;5.70;;;34.60;65.30;;;;;;5052004;28;20477;-83
2022/07/26 12:40:24;;;;;;;7.13;6.30;;;34.60;64.80;;;;;;5052694;28;20504;-80
2022/07/26 12:42:51;;;;;;;5.33;4.83;;;34.70;65.10;;;;;;5051771;28;20434;-81
2022/07/26 12:45:26;;;;;;;6.17;5.03;;;34.70;64.90;;;;;;5053511;28;20481;-78
2022/07/26 12:47:55;;;;;;;5.70;5.20;;;34.70;65.10;;;;;;5066778;28;20440;-82
2022/07/26 12:50:25;;;;;;;7.60;5.73;;;34.70;64.90;;;;;;5052635;28;20453;-83